createdAt,value
2023-04-09T00:01:48.578Z,13.85
2023-04-09T00:04:51.335Z,12.50
2023-04-09T00:07:54.360Z,14.20
2023-04-09T00:11:00.007Z,14.55
2023-04-09T00:14:02.701Z,15.48
2023-04-09T00:17:05.536Z,17.98
2023-04-09T00:20:08.916Z,14.63
2023-04-09T00:23:12.958Z,17.35
2023-04-09T00:26:15.843Z,12.93
2023-04-09T00:29:19.060Z,14.82
2023-04-09T00:32:21.776Z,17.13
2023-04-09T00:35:24.733Z,12.73
2023-04-09T00:38:27.517Z,13.43
2023-04-09T00:41:30.454Z,18.02
2023-04-09T00:44:33.406Z,18.52
2023-04-09T00:47:36.544Z,17.10
2023-04-09T00:50:39.578Z,20.33
2023-04-09T00:53:44.240Z,22.67
2023-04-09T00:56:47.336Z,20.50
2023-04-09T00:59:50.029Z,19.83
2023-04-09T01:02:53.560Z,17.73
2023-04-09T01:06:15.403Z,16.17
2023-04-09T01:09:23.842Z,15.80
2023-04-09T01:12:34.609Z,18.25
2023-04-09T01:15:42.326Z,15.45
2023-04-09T01:19:00.316Z,19.63
2023-04-09T01:22:03.455Z,22.15
2023-04-09T01:25:30.676Z,16.55
2023-04-09T01:31:38.990Z,18.35
2023-04-09T01:34:42.777Z,21.95
2023-04-09T01:37:45.832Z,14.73
2023-04-09T01:40:50.375Z,22.45
2023-04-09T01:43:54.309Z,17.63
2023-04-09T01:46:58.689Z,28.25
2023-04-09T01:50:01.939Z,22.42
2023-04-09T01:53:04.733Z,24.65
2023-04-09T01:56:09.148Z,23.83
2023-04-09T01:59:12.624Z,21.90
2023-04-09T02:02:23.891Z,24.00
2023-04-09T02:05:29.758Z,21.90
2023-04-09T02:08:35.174Z,23.25
2023-04-09T02:11:41.709Z,20.17
2023-04-09T02:14:47.241Z,27.20
2023-04-09T02:17:50.031Z,23.42
2023-04-09T02:20:52.889Z,25.55
2023-04-09T02:23:56.636Z,22.75
2023-04-09T02:27:00.353Z,24.33
2023-04-09T02:30:03.245Z,22.02
2023-04-09T02:33:05.973Z,25.75
2023-04-09T02:36:12.931Z,21.27
2023-04-09T02:39:16.382Z,24.75
2023-04-09T02:42:19.199Z,25.88
2023-04-09T02:45:22.441Z,24.00
2023-04-09T02:48:25.406Z,20.83
2023-04-09T02:51:28.289Z,22.20
2023-04-09T02:54:31.429Z,22.73
2023-04-09T02:57:34.434Z,21.38
2023-04-09T03:00:37.269Z,29.52
2023-04-09T03:03:42.674Z,24.00
2023-04-09T03:06:45.687Z,28.50
2023-04-09T03:09:49.834Z,29.77
2023-04-09T03:12:52.753Z,25.83
2023-04-09T03:15:55.495Z,28.65
2023-04-09T03:18:58.138Z,21.38
2023-04-09T03:22:00.803Z,24.50
2023-04-09T03:25:06.911Z,25.83
2023-04-09T03:28:10.994Z,29.23
2023-04-09T03:34:22.042Z,24.02
2023-04-09T03:37:28.590Z,20.88
2023-04-09T03:40:31.969Z,21.80
2023-04-09T03:43:34.710Z,26.48
2023-04-09T03:46:37.717Z,22.58
2023-04-09T03:49:42.824Z,27.02
2023-04-09T03:52:53.789Z,24.63
2023-04-09T03:55:56.842Z,26.75
2023-04-09T03:59:02.028Z,25.05
2023-04-09T04:02:13.035Z,23.83
2023-04-09T04:05:24.917Z,21.67
2023-04-09T04:08:29.517Z,23.33
2023-04-09T04:11:34.316Z,24.05
2023-04-09T04:14:38.472Z,23.13
2023-04-09T04:17:52.084Z,24.95
2023-04-09T04:21:15.700Z,31.50
2023-04-09T04:24:22.774Z,27.63
2023-04-09T04:27:25.767Z,29.15
2023-04-09T04:30:30.760Z,39.92
2023-04-09T04:33:43.867Z,29.55
2023-04-09T04:36:50.148Z,24.67
2023-04-09T04:39:54.582Z,26.83
2023-04-09T04:42:57.973Z,29.98
2023-04-09T04:46:00.927Z,20.30
2023-04-09T04:49:06.715Z,30.70
2023-04-09T04:52:17.773Z,31.45
2023-04-09T04:55:25.869Z,44.78
2023-04-09T04:58:29.758Z,30.55
2023-04-09T05:04:43.351Z,62.77
2023-04-09T05:07:49.444Z,32.88
2023-04-09T05:10:56.511Z,44.90
2023-04-09T05:14:07.051Z,38.97
2023-04-09T05:17:09.972Z,40.20
2023-04-09T05:20:21.174Z,33.45
2023-04-09T05:23:32.942Z,41.50
2023-04-09T05:26:36.248Z,47.45
2023-04-09T05:29:39.017Z,30.35
2023-04-09T05:32:47.071Z,54.78
2023-04-09T05:35:52.001Z,46.28
2023-04-09T05:38:55.493Z,35.72
2023-04-09T05:41:58.973Z,48.85
2023-04-09T05:45:20.444Z,43.33
2023-04-09T05:48:29.199Z,44.35
2023-04-09T05:51:33.016Z,53.35
2023-04-09T05:54:36.828Z,38.88
2023-04-09T05:57:42.578Z,38.95
2023-04-09T06:00:45.612Z,26.25
2023-04-09T06:03:48.522Z,28.70
2023-04-09T06:06:52.276Z,28.80
2023-04-09T06:09:56.676Z,28.00
2023-04-09T06:12:59.340Z,27.42
2023-04-09T06:16:04.934Z,26.65
2023-04-09T06:19:07.786Z,29.73
2023-04-09T06:22:11.630Z,35.92
2023-04-09T06:25:14.427Z,33.08
2023-04-09T06:28:17.317Z,25.40
2023-04-09T06:31:21.089Z,28.58
2023-04-09T06:34:24.071Z,26.83
2023-04-09T06:37:27.100Z,25.65
2023-04-09T06:40:30.172Z,29.42
2023-04-09T06:43:32.889Z,24.33
2023-04-09T06:46:35.705Z,27.30
2023-04-09T06:49:38.515Z,27.52
2023-04-09T06:52:41.894Z,24.75
2023-04-09T06:55:44.595Z,26.83
2023-04-09T06:58:47.891Z,27.90
2023-04-09T07:01:54.722Z,27.00
2023-04-09T07:04:57.631Z,21.63
2023-04-09T07:08:00.778Z,28.73
2023-04-09T07:11:03.972Z,27.95
2023-04-09T07:14:08.800Z,28.20
2023-04-09T07:17:11.841Z,27.02
2023-04-09T07:20:14.807Z,25.23
2023-04-09T07:23:17.707Z,24.83
2023-04-09T07:26:21.717Z,21.55
2023-04-09T07:29:24.630Z,23.23
2023-04-09T07:32:30.705Z,24.88
2023-04-09T07:35:35.070Z,31.02
2023-04-09T07:38:37.944Z,27.45
2023-04-09T07:41:41.065Z,26.05
2023-04-09T07:44:44.398Z,22.83
2023-04-09T07:47:47.512Z,22.58
2023-04-09T07:50:50.658Z,23.85
2023-04-09T07:53:53.567Z,24.77
2023-04-09T07:56:57.223Z,23.15
2023-04-09T08:00:07.851Z,22.33
2023-04-09T08:03:16.777Z,21.13
2023-04-09T08:06:20.241Z,20.25
2023-04-09T08:09:43.040Z,24.23
2023-04-09T08:12:46.440Z,21.25
2023-04-09T08:15:50.030Z,18.52
2023-04-09T08:18:53.594Z,20.15
2023-04-09T08:21:57.114Z,15.07
2023-04-09T08:25:02.557Z,15.57
2023-04-09T08:28:06.003Z,20.05
2023-04-09T08:31:10.173Z,18.23
2023-04-09T08:34:13.643Z,14.65
2023-04-09T08:37:18.151Z,15.70
2023-04-09T08:40:21.131Z,15.82
2023-04-09T08:43:33.693Z,15.25
2023-04-09T08:46:48.272Z,13.50
2023-04-09T08:49:54.576Z,13.38
2023-04-09T08:52:58.843Z,13.45
2023-04-09T08:56:01.938Z,10.55
2023-04-09T08:59:04.778Z,9.95
2023-04-09T09:02:12.250Z,11.13
2023-04-09T09:05:15.900Z,9.73
2023-04-09T09:08:26.228Z,11.65
2023-04-09T09:11:30.707Z,8.98
2023-04-09T09:14:33.628Z,11.07
2023-04-09T09:17:56.697Z,7.40
2023-04-09T09:21:16.717Z,10.27
2023-04-09T09:24:19.500Z,10.13
2023-04-09T09:27:43.605Z,9.00
2023-04-09T09:33:51.770Z,7.35
2023-04-09T09:36:54.713Z,8.02
2023-04-09T09:39:58.307Z,7.05
2023-04-09T09:43:01.240Z,9.10
2023-04-09T09:46:04.554Z,9.13
2023-04-09T09:49:08.183Z,10.15
2023-04-09T09:52:12.361Z,6.82
2023-04-09T09:55:17.019Z,9.05
2023-04-09T09:58:32.430Z,8.00
2023-04-09T10:01:38.422Z,7.80
2023-04-09T10:04:42.072Z,6.35
2023-04-09T10:07:45.492Z,7.07
2023-04-09T10:10:49.010Z,7.80
2023-04-09T10:13:57.974Z,4.90
2023-04-09T10:17:01.577Z,5.05
2023-04-09T10:20:18.685Z,5.50
2023-04-09T10:23:37.493Z,4.95
2023-04-09T10:26:41.518Z,5.03
2023-04-09T10:29:49.806Z,5.50
2023-04-09T10:32:53.606Z,5.60
2023-04-09T10:36:01.669Z,5.40
2023-04-09T10:39:12.916Z,4.93
2023-04-09T10:42:22.017Z,5.68
2023-04-09T10:45:26.697Z,5.30
2023-04-09T10:48:33.608Z,5.43
2023-04-09T10:51:39.165Z,5.00
2023-04-09T10:54:45.768Z,4.55
2023-04-09T10:57:51.483Z,5.10
2023-04-09T11:00:54.302Z,7.32
2023-04-09T11:04:10.731Z,5.55
2023-04-09T11:07:16.184Z,7.33
2023-04-09T11:10:21.016Z,4.85
2023-04-09T11:13:23.879Z,6.68
2023-04-09T11:16:29.023Z,4.28
2023-04-09T11:19:34.416Z,4.35
2023-04-09T11:22:38.938Z,5.68
2023-04-09T11:25:41.953Z,4.07
2023-04-09T11:28:44.653Z,6.25
2023-04-09T11:31:49.562Z,5.47
2023-04-09T11:34:53.427Z,4.90
2023-04-09T11:37:56.332Z,4.40
2023-04-09T11:40:58.996Z,5.15
2023-04-09T11:44:05.952Z,8.35
2023-04-09T11:47:13.317Z,5.82
2023-04-09T11:50:16.911Z,7.28
2023-04-09T11:53:21.471Z,5.57
2023-04-09T11:56:25.654Z,6.30
2023-04-09T11:59:29.023Z,6.03
2023-04-09T12:02:32.035Z,6.18
2023-04-09T12:05:35.973Z,5.97
2023-04-09T12:08:39.675Z,6.15
2023-04-09T12:11:46.533Z,6.22
2023-04-09T12:14:49.477Z,5.30
2023-04-09T12:17:59.954Z,5.72
2023-04-09T12:21:03.213Z,6.43
2023-04-09T12:24:06.149Z,8.23
2023-04-09T12:27:08.925Z,9.27
2023-04-09T12:30:11.888Z,7.75
2023-04-09T12:33:14.774Z,8.15
2023-04-09T12:36:17.749Z,8.18
2023-04-09T12:39:22.813Z,8.73
2023-04-09T12:42:26.053Z,11.07
2023-04-09T12:45:32.290Z,11.18
2023-04-09T12:48:35.587Z,8.90
2023-04-09T12:51:40.160Z,10.68
2023-04-09T12:54:45.409Z,9.80
2023-04-09T12:57:51.309Z,10.68
2023-04-09T13:00:54.784Z,11.95
2023-04-09T13:03:58.247Z,10.43
2023-04-09T13:07:01.658Z,13.35
2023-04-09T13:10:04.906Z,9.60
2023-04-09T13:13:12.353Z,9.55
2023-04-09T13:16:15.129Z,9.65
2023-04-09T13:19:18.301Z,11.55
2023-04-09T13:22:21.242Z,10.40
2023-04-09T13:25:24.219Z,10.80
2023-04-09T13:28:27.404Z,9.30
2023-04-09T13:31:31.137Z,9.82
2023-04-09T13:34:35.403Z,10.18
2023-04-09T13:37:38.701Z,11.45
2023-04-09T13:40:41.549Z,12.38
2023-04-09T13:43:45.598Z,9.60
2023-04-09T13:46:48.542Z,10.00
2023-04-09T13:49:53.366Z,12.20
2023-04-09T13:52:56.440Z,10.77
2023-04-09T13:55:59.416Z,8.90
2023-04-09T13:59:02.474Z,10.05
2023-04-09T14:02:07.263Z,10.88
2023-04-09T14:05:10.346Z,9.75
2023-04-09T14:08:13.201Z,15.82
2023-04-09T14:11:17.139Z,9.60
2023-04-09T14:14:20.360Z,6.88
2023-04-09T14:17:23.484Z,9.38
2023-04-09T14:20:26.631Z,8.55
2023-04-09T14:23:29.596Z,6.57
2023-04-09T14:26:32.409Z,7.10
2023-04-09T14:29:35.576Z,5.65
2023-04-09T14:32:38.577Z,6.47
2023-04-09T14:35:41.305Z,7.85
2023-04-09T14:38:46.537Z,7.18
2023-04-09T14:41:49.397Z,12.80
2023-04-09T14:44:52.098Z,9.65
2023-04-09T14:47:55.465Z,9.55
2023-04-09T14:50:58.836Z,8.88
2023-04-09T14:54:02.217Z,8.00
2023-04-09T14:57:07.503Z,5.80
2023-04-09T15:00:12.602Z,8.02
2023-04-09T15:03:15.704Z,7.30
2023-04-09T15:06:18.811Z,7.50
2023-04-09T15:09:21.625Z,5.70
2023-04-09T15:12:24.522Z,7.60
2023-04-09T15:15:27.346Z,5.70
2023-04-09T15:18:30.082Z,6.68
2023-04-09T15:21:33.203Z,5.80
2023-04-09T15:24:36.005Z,6.90
2023-04-09T15:27:38.940Z,6.50
2023-04-09T15:30:42.262Z,5.82
2023-04-09T15:33:45.793Z,6.38
2023-04-09T15:36:48.940Z,6.70
2023-04-09T15:39:51.979Z,6.53
2023-04-09T15:42:55.293Z,8.05
2023-04-09T15:45:58.101Z,6.63
2023-04-09T15:49:01.212Z,9.13
2023-04-09T15:52:04.343Z,10.20
2023-04-09T15:55:07.925Z,8.15
2023-04-09T15:58:10.745Z,7.47
2023-04-09T16:01:13.964Z,8.88
2023-04-09T16:04:17.258Z,7.85
2023-04-09T16:07:20.172Z,9.57
2023-04-09T16:10:23.131Z,7.80
2023-04-09T16:13:26.263Z,7.80
2023-04-09T16:16:29.286Z,9.13
2023-04-09T16:19:32.309Z,7.28
2023-04-09T16:22:35.137Z,7.20
2023-04-09T16:25:37.943Z,8.27
2023-04-09T16:28:40.717Z,8.75
2023-04-09T16:31:43.778Z,8.85
2023-04-09T16:34:47.682Z,8.45
2023-04-09T16:37:52.483Z,7.20
2023-04-09T16:40:55.675Z,8.32
2023-04-09T16:43:58.552Z,7.45
2023-04-09T16:47:03.060Z,9.02
2023-04-09T16:50:10.799Z,7.07
2023-04-09T16:53:14.147Z,6.90
2023-04-09T16:56:17.358Z,9.10
2023-04-09T16:59:21.609Z,9.80
2023-04-09T17:02:25.053Z,7.70
2023-04-09T17:05:28.334Z,6.68
2023-04-09T17:08:31.908Z,4.97
2023-04-09T17:11:35.492Z,5.63
2023-04-09T17:14:42.692Z,5.53
2023-04-09T17:17:48.869Z,5.90
2023-04-09T17:20:53.431Z,6.00
2023-04-09T17:23:57.057Z,6.53
2023-04-09T17:27:00.820Z,5.88
2023-04-09T17:30:06.937Z,6.47
2023-04-09T17:33:12.219Z,4.87
2023-04-09T17:36:20.515Z,5.55
2023-04-09T17:39:29.825Z,6.60
2023-04-09T17:42:35.059Z,5.40
2023-04-09T17:45:39.004Z,7.57
2023-04-09T17:48:43.643Z,7.72
2023-04-09T17:51:47.731Z,9.57
2023-04-09T17:54:51.943Z,7.63
2023-04-09T17:57:55.251Z,7.72
2023-04-09T18:01:00.199Z,9.02
2023-04-09T18:04:03.898Z,11.52
2023-04-09T18:07:07.470Z,7.72
2023-04-09T18:10:12.743Z,5.80
2023-04-09T18:13:16.148Z,5.60
2023-04-09T18:16:21.371Z,6.68
2023-04-09T18:19:24.822Z,6.63
2023-04-09T18:22:27.881Z,8.40
2023-04-09T18:25:31.017Z,14.18
2023-04-09T18:28:35.420Z,14.05
2023-04-09T18:31:38.355Z,12.05
2023-04-09T18:34:41.650Z,9.63
2023-04-09T18:37:45.119Z,8.55
2023-04-09T18:40:48.242Z,8.68
2023-04-09T18:43:51.655Z,8.27
2023-04-09T18:46:54.482Z,13.13
2023-04-09T18:49:57.941Z,11.77
2023-04-09T18:53:01.240Z,10.68
2023-04-09T18:56:04.374Z,7.57
2023-04-09T18:59:07.204Z,9.52
2023-04-09T19:02:10.310Z,9.95
2023-04-09T19:05:13.139Z,11.98
2023-04-09T19:08:16.975Z,16.27
2023-04-09T19:11:19.912Z,25.67
2023-04-09T19:14:22.632Z,22.85
2023-04-09T19:17:25.959Z,18.50
2023-04-09T19:20:29.329Z,16.73
2023-04-09T19:23:34.552Z,22.08
2023-04-09T19:26:37.938Z,32.28
2023-04-09T19:29:40.795Z,32.17
2023-04-09T19:32:48.153Z,25.30
2023-04-09T19:35:52.483Z,25.27
2023-04-09T19:38:55.597Z,23.77
2023-04-09T19:41:58.961Z,19.67
2023-04-09T19:45:02.048Z,23.50
2023-04-09T19:48:08.242Z,23.05
2023-04-09T19:51:18.257Z,14.60
2023-04-09T19:54:23.312Z,27.73
2023-04-09T19:57:26.933Z,20.02
2023-04-09T20:00:29.983Z,13.88
2023-04-09T20:03:33.714Z,30.02
2023-04-09T20:06:36.536Z,29.13
2023-04-09T20:09:41.755Z,20.38
2023-04-09T20:12:47.828Z,26.90
2023-04-09T20:15:50.547Z,24.80
2023-04-09T20:18:53.757Z,24.55
2023-04-09T20:21:57.445Z,22.30
2023-04-09T20:25:01.010Z,22.98
2023-04-09T20:28:04.657Z,22.13
2023-04-09T20:31:10.890Z,19.83
2023-04-09T20:34:13.855Z,20.77
2023-04-09T20:37:16.862Z,25.85
2023-04-09T20:40:22.605Z,27.65
2023-04-09T20:43:25.282Z,30.70
2023-04-09T20:46:28.235Z,22.88
2023-04-09T20:49:31.289Z,24.23
2023-04-09T20:52:34.058Z,24.65
2023-04-09T20:55:37.674Z,26.15
2023-04-09T20:58:40.548Z,22.77
2023-04-09T21:01:43.601Z,26.00
2023-04-09T21:04:46.922Z,23.75
2023-04-09T21:07:50.058Z,29.08
2023-04-09T21:10:53.393Z,30.95
2023-04-09T21:13:56.347Z,23.77
2023-04-09T21:17:01.488Z,26.15
2023-04-09T21:20:04.878Z,23.40
2023-04-09T21:23:07.711Z,24.10
2023-04-09T21:26:13.550Z,22.70
2023-04-09T21:29:16.217Z,24.92
2023-04-09T21:32:19.020Z,22.90
2023-04-09T21:35:22.092Z,26.25
2023-04-09T21:38:24.972Z,28.30
2023-04-09T21:41:27.742Z,23.73
2023-04-09T21:44:30.839Z,24.80
2023-04-09T21:47:33.876Z,26.02
2023-04-09T21:50:38.928Z,24.63
2023-04-09T21:53:41.851Z,25.08
2023-04-09T21:56:44.679Z,24.38
2023-04-09T21:59:49.492Z,28.33
2023-04-09T22:02:52.491Z,25.10
2023-04-09T22:05:55.511Z,22.63
2023-04-09T22:08:58.788Z,24.10
2023-04-09T22:12:03.110Z,23.30
2023-04-09T22:15:07.122Z,25.95
2023-04-09T22:18:09.860Z,24.55
2023-04-09T22:21:16.462Z,24.50
2023-04-09T22:24:19.651Z,26.02
2023-04-09T22:27:22.576Z,25.73
2023-04-09T22:30:25.264Z,28.85
2023-04-09T22:33:28.295Z,32.65
2023-04-09T22:36:32.202Z,28.33
2023-04-09T22:39:35.017Z,25.05
2023-04-09T22:42:37.772Z,29.25
2023-04-09T22:45:40.400Z,24.60
2023-04-09T22:48:45.011Z,22.02
2023-04-09T22:51:48.745Z,25.63
2023-04-09T22:54:51.731Z,26.02
2023-04-09T22:57:55.330Z,27.17
2023-04-09T23:00:58.527Z,28.63
2023-04-09T23:04:02.218Z,26.88
2023-04-09T23:07:05.137Z,27.98
2023-04-09T23:10:08.237Z,26.77
2023-04-09T23:13:14.252Z,26.42
2023-04-09T23:16:17.452Z,29.05
2023-04-09T23:19:20.232Z,25.48
2023-04-09T23:22:24.644Z,33.47
2023-04-09T23:25:27.362Z,30.50
2023-04-09T23:28:30.607Z,31.20
2023-04-09T23:31:33.278Z,29.45
2023-04-09T23:34:36.002Z,33.65
2023-04-09T23:37:42.773Z,31.40
2023-04-09T23:40:47.581Z,31.13
2023-04-09T23:43:51.551Z,29.92
2023-04-09T23:46:54.453Z,27.48
2023-04-09T23:49:57.253Z,30.10
2023-04-09T23:53:03.698Z,28.70
2023-04-09T23:56:06.828Z,30.33
2023-04-09T23:59:09.638Z,28.13
